Time,TemperatureF,DewpointF,PressureIn,WindDirection,WindDirectionDegrees,WindSpeedMPH,WindSpeedGustMPH,Humidity,HourlyPrecipIn,Conditions,Clouds,dailyrainin,SoftwareType,DateUTC
2013-01-29 00:01:00,46.9,40.4,26.69,WNW,293,0.0,4.6,78,0.00,,,0.00,WUHU216HW,2013-01-29 05:01:00,
2013-01-29 00:06:00,47.1,40.6,26.69,SW,225,0.6,4.6,78,0.00,,,0.00,WUHU216HW,2013-01-29 05:06:00,
2013-01-29 00:11:00,47.3,40.7,26.69,WSW,248,0.0,1.3,78,0.00,,,0.00,WUHU216HW,2013-01-29 05:11:00,
2013-01-29 00:16:00,47.3,40.7,26.69,WSW,248,0.0,1.3,78,0.00,,,0.00,WUHU216HW,2013-01-29 05:16:00,
2013-01-29 00:21:00,47.4,41.2,26.69,West,270,4.2,4.4,79,0.00,,,0.00,WUHU216HW,2013-01-29 05:21:00,
2013-01-29 00:26:00,47.4,41.2,26.69,West,270,0.6,6.0,79,0.00,,,0.00,WUHU216HW,2013-01-29 05:26:00,
2013-01-29 00:31:00,47.4,41.2,26.69,WNW,293,0.0,6.0,79,0.00,,,0.00,WUHU216HW,2013-01-29 05:31:00,
2013-01-29 00:36:00,47.4,41.2,26.69,WNW,293,0.8,4.2,79,0.00,,,0.00,WUHU216HW,2013-01-29 05:36:00,
2013-01-29 00:41:00,47.4,41.2,26.69,West,270,0.0,3.1,79,0.00,,,0.00,WUHU216HW,2013-01-29 05:41:00,
2013-01-29 00:46:00,47.4,41.2,26.69,NW,315,2.4,2.4,79,0.00,,,0.00,WUHU216HW,2013-01-29 05:46:00,
2013-01-29 00:51:00,47.4,41.2,26.69,NW,315,3.5,3.8,79,0.00,,,0.00,WUHU216HW,2013-01-29 05:51:00,
2013-01-29 00:56:00,47.4,41.4,26.69,West,270,2.4,3.8,79,0.00,,,0.00,WUHU216HW,2013-01-29 05:56:00,
2013-01-29 01:01:00,47.4,41.2,26.68,NW,315,3.3,3.3,79,0.00,,,0.00,WUHU216HW,2013-01-29 06:01:00,
2013-01-29 01:06:00,47.6,41.4,26.69,WNW,293,4.4,6.0,79,0.00,,,0.00,WUHU216HW,2013-01-29 06:06:00,
2013-01-29 01:11:00,47.4,41.2,26.69,WSW,248,3.5,6.7,79,0.00,,,0.00,WUHU216HW,2013-01-29 06:11:00,
2013-01-29 01:16:00,47.4,41.2,26.69,West,270,1.1,6.7,79,0.00,,,0.00,WUHU216HW,2013-01-29 06:16:00,
2013-01-29 01:21:00,47.4,41.2,26.68,WSW,248,0.0,3.5,79,0.00,,,0.00,WUHU216HW,2013-01-29 06:21:00,
2013-01-29 01:26:00,47.4,41.2,26.68,WNW,293,1.7,4.0,79,0.00,,,0.00,WUHU216HW,2013-01-29 06:26:00,
2013-01-29 01:31:00,47.4,41.2,26.68,WNW,293,3.3,4.0,79,0.00,,,0.00,WUHU216HW,2013-01-29 06:31:00,
2013-01-29 01:36:00,47.4,41.2,26.68,WNW,293,6.0,6.0,79,0.00,,,0.00,WUHU216HW,2013-01-29 06:36:00,
2013-01-29 01:41:00,47.6,41.4,26.68,West,270,4.0,6.0,79,0.00,,,0.00,WUHU216HW,2013-01-29 06:41:00,
2013-01-29 01:46:00,47.6,41.4,26.69,West,270,1.7,5.8,79,0.00,,,0.00,WUHU216HW,2013-01-29 06:46:00,
2013-01-29 01:51:00,47.6,41.4,26.68,West,270,3.5,5.8,79,0.00,,,0.00,WUHU216HW,2013-01-29 06:51:00,
2013-01-29 01:56:00,47.6,41.0,26.68,West,270,1.5,3.5,78,0.00,,,0.00,WUHU216HW,2013-01-29 06:56:00,
2013-01-29 02:01:00,47.6,41.0,26.68,West,270,0.0,3.1,78,0.00,,,0.00,WUHU216HW,2013-01-29 07:01:00,
2013-01-29 02:06:00,47.8,41.2,26.68,WNW,293,3.1,3.1,78,0.00,,,0.00,WUHU216HW,2013-01-29 07:06:00,
2013-01-29 02:11:00,47.8,41.2,26.68,West,270,2.9,5.3,78,0.00,,,0.00,WUHU216HW,2013-01-29 07:11:00,
2013-01-29 02:17:00,48.0,41.4,26.68,West,270,3.1,5.3,78,0.00,,,0.00,WUHU216HW,2013-01-29 07:17:00,
2013-01-29 02:22:00,47.8,41.2,26.68,West,270,3.8,3.8,78,0.00,,,0.00,WUHU216HW,2013-01-29 07:22:00,
2013-01-29 02:27:00,47.8,41.2,26.68,West,270,3.3,3.8,78,0.00,,,0.00,WUHU216HW,2013-01-29 07:27:00,
2013-01-29 02:32:00,47.8,41.2,26.68,West,270,3.8,3.8,78,0.00,,,0.00,WUHU216HW,2013-01-29 07:32:00,
2013-01-29 02:37:00,47.8,41.2,26.68,West,270,0.8,3.8,78,0.00,,,0.00,WUHU216HW,2013-01-29 07:37:00,
2013-01-29 02:42:00,47.8,41.2,26.68,West,270,1.7,1.7,78,0.00,,,0.00,WUHU216HW,2013-01-29 07:42:00,
2013-01-29 02:47:00,47.8,41.2,26.68,West,270,0.0,2.6,78,0.00,,,0.00,WUHU216HW,2013-01-29 07:47:00,
2013-01-29 02:52:00,47.8,41.2,26.68,West,270,3.1,3.1,78,0.00,,,0.00,WUHU216HW,2013-01-29 07:52:00,
2013-01-29 02:57:00,48.0,41.4,26.68,West,270,0.0,3.1,78,0.00,,,0.00,WUHU216HW,2013-01-29 07:57:00,
2013-01-29 03:02:00,47.8,41.2,26.68,West,270,0.0,3.1,78,0.00,,,0.00,WUHU216HW,2013-01-29 08:02:00,
2013-01-29 03:07:00,48.0,41.4,26.68,West,270,0.0,2.6,78,0.00,,,0.00,WUHU216HW,2013-01-29 08:07:00,
2013-01-29 03:12:00,48.0,41.4,26.68,West,270,0.6,2.6,78,0.00,,,0.00,WUHU216HW,2013-01-29 08:12:00,
2013-01-29 03:17:00,48.0,41.4,26.68,West,270,2.0,2.0,78,0.00,,,0.00,WUHU216HW,2013-01-29 08:17:00,
2013-01-29 03:22:00,48.0,41.0,26.68,West,270,0.0,2.0,77,0.00,,,0.00,WUHU216HW,2013-01-29 08:22:00,
2013-01-29 03:27:00,48.0,41.0,26.68,West,270,0.0,0.0,77,0.00,,,0.00,WUHU216HW,2013-01-29 08:27:00,
2013-01-29 03:32:00,48.0,41.0,26.67,West,270,0.0,0.0,77,0.00,,,0.00,WUHU216HW,2013-01-29 08:32:00,
2013-01-29 03:37:00,48.0,41.0,26.67,West,270,0.0,0.0,77,0.00,,,0.00,WUHU216HW,2013-01-29 08:37:00,
2013-01-29 03:42:00,48.0,41.0,26.67,West,270,0.0,0.0,77,0.00,,,0.00,WUHU216HW,2013-01-29 08:42:00,
2013-01-29 03:47:00,48.0,41.0,26.67,West,270,0.0,0.0,77,0.00,,,0.00,WUHU216HW,2013-01-29 08:47:00,
2013-01-29 03:52:00,48.0,41.0,26.67,West,270,0.0,0.0,77,0.00,,,0.00,WUHU216HW,2013-01-29 08:52:00,
2013-01-29 03:57:00,48.0,41.0,26.67,NW,315,0.0,1.7,77,0.00,,,0.00,WUHU216HW,2013-01-29 08:57:00,
2013-01-29 04:02:00,48.2,41.2,26.67,WNW,293,3.3,3.3,77,0.00,,,0.00,WUHU216HW,2013-01-29 09:02:00,
2013-01-29 04:07:00,48.3,41.4,26.67,NW,315,5.3,5.3,77,0.00,,,0.00,WUHU216HW,2013-01-29 09:07:00,
2013-01-29 04:13:00,48.3,41.0,26.67,WNW,293,0.0,5.3,76,0.00,,,0.00,WUHU216HW,2013-01-29 09:13:00,
2013-01-29 04:18:00,48.2,40.8,26.67,West,270,1.3,1.3,76,0.00,,,0.00,WUHU216HW,2013-01-29 09:18:00,
2013-01-29 04:23:00,48.0,40.7,26.67,WSW,248,0.0,5.3,76,0.00,,,0.00,WUHU216HW,2013-01-29 09:23:00,
2013-01-29 04:28:00,48.0,40.7,26.67,WNW,293,2.0,5.3,76,0.00,,,0.00,WUHU216HW,2013-01-29 09:28:00,
2013-01-29 04:33:00,48.0,40.7,26.67,WNW,293,5.5,5.5,76,0.00,,,0.00,WUHU216HW,2013-01-29 09:33:00,
2013-01-29 04:38:00,48.0,40.7,26.67,WNW,293,0.0,5.5,76,0.00,,,0.00,WUHU216HW,2013-01-29 09:38:00,
2013-01-29 04:43:00,48.0,40.7,26.67,WNW,293,0.0,5.5,76,0.00,,,0.00,WUHU216HW,2013-01-29 09:43:00,
2013-01-29 04:48:00,48.0,40.7,26.67,West,270,4.9,4.9,76,0.00,,,0.00,WUHU216HW,2013-01-29 09:48:00,
2013-01-29 04:53:00,48.0,40.7,26.67,WNW,293,5.1,7.1,76,0.00,,,0.00,WUHU216HW,2013-01-29 09:53:00,
2013-01-29 04:58:00,47.8,40.5,26.67,WNW,293,4.0,7.6,76,0.00,,,0.00,WUHU216HW,2013-01-29 09:58:00,
2013-01-29 05:03:00,47.8,40.9,26.67,WNW,293,4.6,7.6,77,0.00,,,0.00,WUHU216HW,2013-01-29 10:03:00,
2013-01-29 05:08:00,47.6,40.7,26.67,WNW,293,7.3,7.3,77,0.00,,,0.00,WUHU216HW,2013-01-29 10:08:00,
2013-01-29 05:13:00,47.4,40.5,26.67,NW,315,4.9,7.6,77,0.00,,,0.00,WUHU216HW,2013-01-29 10:13:00,
2013-01-29 05:18:00,47.3,40.4,26.67,WNW,293,6.7,7.6,77,0.00,,,0.00,WUHU216HW,2013-01-29 10:18:00,
2013-01-29 05:23:00,47.3,40.4,26.67,WNW,293,6.9,6.9,77,0.00,,,0.00,WUHU216HW,2013-01-29 10:23:00,
2013-01-29 05:28:00,47.1,40.2,26.67,NW,315,4.2,7.6,77,0.00,,,0.00,WUHU216HW,2013-01-29 10:28:00,
2013-01-29 05:33:00,47.1,40.2,26.67,West,270,8.0,8.0,77,0.00,,,0.00,WUHU216HW,2013-01-29 10:33:00,
2013-01-29 05:38:00,47.1,40.2,26.66,West,270,6.9,8.0,77,0.00,,,0.00,WUHU216HW,2013-01-29 10:38:00,
2013-01-29 05:43:00,47.1,40.2,26.67,NW,315,6.9,8.0,77,0.00,,,0.00,WUHU216HW,2013-01-29 10:43:00,
2013-01-29 05:48:00,47.1,40.2,26.67,WNW,293,5.5,6.9,77,0.00,,,0.00,WUHU216HW,2013-01-29 10:48:00,
2013-01-29 05:53:00,47.1,40.2,26.67,WNW,293,5.8,6.9,77,0.00,,,0.00,WUHU216HW,2013-01-29 10:53:00,
2013-01-29 05:58:00,46.9,40.1,26.67,WNW,293,7.8,8.9,77,0.00,,,0.00,WUHU216HW,2013-01-29 10:58:00,
2013-01-29 06:03:00,46.9,40.1,26.66,WNW,293,6.2,8.9,77,0.00,,,0.00,WUHU216HW,2013-01-29 11:03:00,
2013-01-29 06:08:00,46.9,40.1,26.66,West,270,5.8,7.8,77,0.00,,,0.00,WUHU216HW,2013-01-29 11:08:00,
2013-01-29 06:13:00,46.7,39.9,26.66,WNW,293,7.1,8.2,77,0.00,,,0.00,WUHU216HW,2013-01-29 11:13:00,
2013-01-29 06:18:00,46.7,40.2,26.66,WNW,293,6.2,8.2,78,0.00,,,0.00,WUHU216HW,2013-01-29 11:18:00,
2013-01-29 06:23:00,46.5,39.7,26.66,WNW,293,7.6,7.6,77,0.00,,,0.00,WUHU216HW,2013-01-29 11:23:00,
2013-01-29 06:28:00,46.5,39.7,26.66,West,270,7.1,7.6,77,0.00,,,0.00,WUHU216HW,2013-01-29 11:28:00,
2013-01-29 06:33:00,46.5,39.7,26.66,WNW,293,10.0,10.0,77,0.00,,,0.00,WUHU216HW,2013-01-29 11:33:00,
2013-01-29 06:38:00,46.7,39.9,26.66,West,270,6.0,10.0,77,0.00,,,0.00,WUHU216HW,2013-01-29 11:38:00,
2013-01-29 06:44:00,46.9,40.1,26.66,West,270,4.9,8.0,77,0.00,,,0.00,WUHU216HW,2013-01-29 11:44:00,
2013-01-29 06:49:00,46.7,39.9,26.66,West,270,6.9,8.0,77,0.00,,,0.00,WUHU216HW,2013-01-29 11:49:00,
2013-01-29 06:54:00,46.7,39.9,26.66,WNW,293,6.4,7.3,77,0.00,,,0.00,WUHU216HW,2013-01-29 11:54:00,
2013-01-29 06:59:00,46.9,40.1,26.66,WNW,293,7.8,7.8,77,0.00,,,0.00,WUHU216HW,2013-01-29 11:59:00,
2013-01-29 07:04:00,46.9,39.7,26.66,WNW,293,5.1,11.8,76,0.00,,,0.00,WUHU216HW,2013-01-29 12:04:00,
2013-01-29 07:09:00,46.7,39.5,26.66,West,270,5.8,11.8,76,0.00,,,0.00,WUHU216HW,2013-01-29 12:09:00,
2013-01-29 07:14:00,46.9,39.7,26.66,West,270,4.4,7.3,76,0.00,,,0.00,WUHU216HW,2013-01-29 12:14:00,
2013-01-29 07:19:00,46.9,39.7,26.66,NW,315,8.7,8.7,76,0.00,,,0.00,WUHU216HW,2013-01-29 12:19:00,
2013-01-29 07:24:00,46.9,39.7,26.66,WNW,293,4.2,8.7,76,0.00,,,0.00,WUHU216HW,2013-01-29 12:24:00,
2013-01-29 07:29:00,47.1,39.9,26.66,WNW,293,6.0,8.5,76,0.00,,,0.00,WUHU216HW,2013-01-29 12:29:00,
2013-01-29 07:34:00,47.1,39.5,26.66,NW,315,7.8,8.9,75,0.00,,,0.00,WUHU216HW,2013-01-29 12:34:00,
2013-01-29 07:39:00,47.1,39.5,26.67,WNW,293,9.1,9.1,75,0.00,,,0.00,WUHU216HW,2013-01-29 12:39:00,
2013-01-29 07:44:00,47.1,39.5,26.67,WNW,293,12.9,12.9,75,0.00,,,0.00,WUHU216HW,2013-01-29 12:44:00,
2013-01-29 07:49:00,47.1,39.5,26.67,West,270,6.4,12.9,75,0.00,,,0.00,WUHU216HW,2013-01-29 12:49:00,
2013-01-29 07:54:00,47.1,39.5,26.67,West,270,6.9,12.9,75,0.00,,,0.00,WUHU216HW,2013-01-29 12:54:00,
2013-01-29 07:59:00,47.1,39.5,26.67,WNW,293,7.1,7.6,75,0.00,,,0.00,WUHU216HW,2013-01-29 12:59:00,
2013-01-29 08:04:00,47.1,39.2,26.67,WNW,293,3.5,7.6,74,0.00,,,0.00,WUHU216HW,2013-01-29 13:04:00,
2013-01-29 08:10:00,47.1,39.2,26.67,WNW,293,8.5,8.5,74,0.00,,,0.00,WUHU216HW,2013-01-29 13:10:00,
2013-01-29 08:15:00,47.1,39.2,26.67,WNW,293,8.0,8.5,74,0.00,,,0.00,WUHU216HW,2013-01-29 13:15:00,
2013-01-29 08:20:00,47.4,39.5,26.67,WNW,293,7.3,8.0,74,0.00,,,0.00,WUHU216HW,2013-01-29 13:20:00,
2013-01-29 08:25:00,47.8,39.8,26.67,WNW,293,7.3,8.2,74,0.00,,,0.00,WUHU216HW,2013-01-29 13:25:00,
2013-01-29 08:30:00,48.0,39.7,26.67,NW,315,8.0,8.7,73,0.00,,,0.00,WUHU216HW,2013-01-29 13:30:00,
2013-01-29 08:35:00,48.0,39.7,26.67,WNW,293,10.0,10.0,73,0.00,,,0.00,WUHU216HW,2013-01-29 13:35:00,
2013-01-29 08:40:00,48.2,39.8,26.67,WNW,293,8.0,10.0,73,0.00,,,0.00,WUHU216HW,2013-01-29 13:40:00,
2013-01-29 08:45:00,48.2,39.8,26.67,WNW,293,8.9,10.0,73,0.00,,,0.00,WUHU216HW,2013-01-29 13:45:00,
2013-01-29 08:50:00,48.2,39.8,26.67,WNW,293,6.7,9.8,73,0.00,,,0.00,WUHU216HW,2013-01-29 13:50:00,
2013-01-29 08:55:00,48.2,39.8,26.67,NW,315,10.2,10.2,73,0.00,,,0.00,WUHU216HW,2013-01-29 13:55:00,
2013-01-29 09:00:00,48.3,40.0,26.67,NW,315,8.5,10.2,73,0.00,,,0.00,WUHU216HW,2013-01-29 14:00:00,
2013-01-29 09:05:00,48.3,40.0,26.67,NW,315,9.3,9.3,73,0.00,,,0.00,WUHU216HW,2013-01-29 14:05:00,
2013-01-29 09:10:00,48.3,40.0,26.67,WNW,293,11.6,11.6,73,0.00,,,0.00,WUHU216HW,2013-01-29 14:10:00,
2013-01-29 09:15:00,48.5,40.2,26.67,West,270,8.7,11.6,73,0.00,,,0.00,WUHU216HW,2013-01-29 14:15:00,
2013-01-29 09:20:00,48.7,40.4,26.67,WNW,293,6.4,9.8,73,0.00,,,0.00,WUHU216HW,2013-01-29 14:20:00,
2013-01-29 09:25:00,48.9,40.5,26.67,WNW,293,7.8,8.7,73,0.00,,,0.00,WUHU216HW,2013-01-29 14:25:00,
2013-01-29 09:30:00,49.1,40.7,26.68,WNW,293,8.7,8.9,73,0.00,,,0.00,WUHU216HW,2013-01-29 14:30:00,
2013-01-29 09:35:00,49.2,40.9,26.68,West,270,6.9,8.9,73,0.00,,,0.00,WUHU216HW,2013-01-29 14:35:00,
2013-01-29 09:40:00,49.6,41.6,26.68,WNW,293,7.1,8.9,74,0.00,,,0.00,WUHU216HW,2013-01-29 14:40:00,
2013-01-29 09:45:00,49.8,41.6,26.68,West,270,4.2,7.6,74,0.00,,,0.00,WUHU216HW,2013-01-29 14:45:00,
2013-01-29 09:50:00,50.1,41.8,26.68,West,270,4.6,5.8,73,0.00,,,0.00,WUHU216HW,2013-01-29 14:50:00,
2013-01-29 09:55:00,50.7,41.7,26.68,West,270,6.2,6.2,71,0.00,,,0.00,WUHU216HW,2013-01-29 14:55:00,
2013-01-29 10:00:00,50.9,41.5,26.68,West,270,2.9,6.2,70,0.00,,,0.00,WUHU216HW,2013-01-29 15:00:00,
2013-01-29 10:05:00,51.4,42.0,26.68,West,270,2.2,6.2,70,0.00,,,0.00,WUHU216HW,2013-01-29 15:05:00,
2013-01-29 10:10:00,51.9,42.1,26.68,WSW,248,2.9,5.3,69,0.00,,,0.00,WUHU216HW,2013-01-29 15:10:00,
2013-01-29 10:16:00,52.3,42.0,26.68,WSW,248,0.0,6.9,68,0.00,,,0.00,WUHU216HW,2013-01-29 15:16:00,
2013-01-29 10:21:00,52.7,42.4,26.68,WSW,248,0.0,6.9,68,0.00,,,0.00,WUHU216HW,2013-01-29 15:21:00,
2013-01-29 10:26:00,53.0,42.9,26.68,WSW,248,0.0,0.0,68,0.00,,,0.00,WUHU216HW,2013-01-29 15:26:00,
2013-01-29 10:31:00,53.4,43.0,26.68,South,180,0.0,0.0,68,0.00,,,0.00,WUHU216HW,2013-01-29 15:31:00,
2013-01-29 10:36:00,53.9,43.6,26.68,SE,135,0.4,0.4,68,0.00,,,0.00,WUHU216HW,2013-01-29 15:36:00,
2013-01-29 10:41:00,54.3,43.9,26.67,SE,135,0.0,0.4,68,0.00,,,0.00,WUHU216HW,2013-01-29 15:41:00,
2013-01-29 10:46:00,54.6,43.9,26.67,WNW,293,2.2,2.2,67,0.00,,,0.00,WUHU216HW,2013-01-29 15:46:00,
2013-01-29 10:51:00,55.0,43.8,26.67,WNW,293,3.5,4.0,66,0.00,,,0.00,WUHU216HW,2013-01-29 15:51:00,
2013-01-29 10:56:00,55.2,44.0,26.67,WNW,293,0.0,4.0,66,0.00,,,0.00,WUHU216HW,2013-01-29 15:56:00,
2013-01-29 11:01:00,55.4,44.2,26.67,WNW,293,0.0,2.4,66,0.00,,,0.00,WUHU216HW,2013-01-29 16:01:00,
2013-01-29 11:06:00,55.7,44.5,26.66,WNW,293,0.0,0.0,66,0.00,,,0.00,WUHU216HW,2013-01-29 16:06:00,
2013-01-29 11:11:00,55.9,44.7,26.66,WNW,293,0.0,0.0,66,0.00,,,0.00,WUHU216HW,2013-01-29 16:11:00,
2013-01-29 11:16:00,56.1,44.4,26.66,WNW,293,0.0,0.0,64,0.00,,,0.00,WUHU216HW,2013-01-29 16:16:00,
2013-01-29 11:22:00,56.3,44.2,26.66,WNW,293,0.4,2.6,64,0.00,,,0.00,WUHU216HW,2013-01-29 16:22:00,
2013-01-29 11:27:00,56.3,44.2,26.65,WNW,293,0.0,2.6,64,0.00,,,0.00,WUHU216HW,2013-01-29 16:27:00,
2013-01-29 11:32:00,56.8,44.4,26.65,WNW,293,0.0,0.4,64,0.00,,,0.00,WUHU216HW,2013-01-29 16:32:00,
2013-01-29 11:37:00,57.0,44.9,26.65,WNW,293,0.0,0.0,64,0.00,,,0.00,WUHU216HW,2013-01-29 16:37:00,
2013-01-29 11:42:00,57.3,44.8,26.65,WNW,293,0.0,0.0,63,0.00,,,0.00,WUHU216HW,2013-01-29 16:42:00,
2013-01-29 11:47:00,57.5,45.0,26.65,NW,315,0.8,2.6,63,0.00,,,0.00,WUHU216HW,2013-01-29 16:47:00,
2013-01-29 11:52:00,57.9,44.9,26.65,NW,315,0.6,2.6,62,0.00,,,0.00,WUHU216HW,2013-01-29 16:52:00,
2013-01-29 11:57:00,57.9,44.9,26.65,NW,315,0.0,0.8,62,0.00,,,0.00,WUHU216HW,2013-01-29 16:57:00,
2013-01-29 12:02:00,58.2,45.3,26.65,NW,315,1.7,1.7,62,0.00,,,0.00,WUHU216HW,2013-01-29 17:02:00,
2013-01-29 12:07:00,58.6,45.2,26.65,NNW,338,2.9,2.9,61,0.00,,,0.00,WUHU216HW,2013-01-29 17:07:00,
2013-01-29 12:12:00,58.8,45.2,26.64,NNW,338,0.0,2.9,61,0.00,,,0.00,WUHU216HW,2013-01-29 17:12:00,
2013-01-29 12:18:00,58.8,45.3,26.65,NNW,338,0.0,1.5,61,0.00,,,0.00,WUHU216HW,2013-01-29 17:18:00,
2013-01-29 12:23:00,58.8,45.3,26.64,NNW,338,0.0,0.0,61,0.00,,,0.00,WUHU216HW,2013-01-29 17:23:00,
2013-01-29 12:28:00,59.5,45.6,26.64,ESE,113,3.8,3.8,60,0.00,,,0.00,WUHU216HW,2013-01-29 17:28:00,
2013-01-29 12:33:00,59.9,46.0,26.64,East,90,0.0,3.8,60,0.00,,,0.00,WUHU216HW,2013-01-29 17:33:00,
2013-01-29 12:38:00,60.0,46.2,26.64,NE,45,0.4,3.8,60,0.00,,,0.00,WUHU216HW,2013-01-29 17:38:00,
2013-01-29 12:43:00,60.6,46.7,26.63,NE,45,0.0,0.4,60,0.00,,,0.00,WUHU216HW,2013-01-29 17:43:00,
2013-01-29 12:48:00,60.9,47.1,26.63,SE,135,1.1,1.1,60,0.00,,,0.00,WUHU216HW,2013-01-29 17:48:00,
2013-01-29 12:53:00,61.1,47.2,26.63,SE,135,0.0,4.9,60,0.00,,,0.00,WUHU216HW,2013-01-29 17:53:00,
2013-01-29 12:58:00,61.7,47.7,26.61,SE,135,1.3,6.4,60,0.00,,,0.00,WUHU216HW,2013-01-29 17:58:00,
2013-01-29 13:03:00,61.8,47.9,26.61,SSE,158,2.0,6.4,60,0.00,,,0.00,WUHU216HW,2013-01-29 18:03:00,
2013-01-29 13:08:00,62.2,48.2,26.61,SE,135,3.1,7.1,60,0.00,,,0.00,WUHU216HW,2013-01-29 18:08:00,
2013-01-29 13:13:00,62.4,47.9,26.61,SSE,158,7.3,8.9,59,0.00,,,0.00,WUHU216HW,2013-01-29 18:13:00,
2013-01-29 13:18:00,62.7,48.2,26.61,SSE,158,7.6,8.9,59,0.00,,,0.00,WUHU216HW,2013-01-29 18:18:00,
2013-01-29 13:23:00,63.1,48.5,26.61,SSE,158,7.3,7.6,59,0.00,,,0.00,WUHU216HW,2013-01-29 18:23:00,
2013-01-29 13:28:00,63.3,48.2,26.60,SSE,158,3.1,7.6,58,0.00,,,0.00,WUHU216HW,2013-01-29 18:28:00,
2013-01-29 13:33:00,63.5,48.3,26.60,SSE,158,2.9,5.5,58,0.00,,,0.00,WUHU216HW,2013-01-29 18:33:00,
2013-01-29 13:38:00,63.5,48.3,26.59,SE,135,0.8,4.0,58,0.00,,,0.00,WUHU216HW,2013-01-29 18:38:00,
2013-01-29 13:43:00,63.6,48.0,26.59,SE,135,7.6,7.6,57,0.00,,,0.00,WUHU216HW,2013-01-29 18:43:00,
2013-01-29 13:48:00,64.0,48.3,26.59,SSE,158,5.1,7.6,57,0.00,,,0.00,WUHU216HW,2013-01-29 18:48:00,
2013-01-29 13:53:00,64.0,48.3,26.58,SE,135,6.2,6.2,57,0.00,,,0.00,WUHU216HW,2013-01-29 18:53:00,
2013-01-29 13:58:00,64.2,47.5,26.58,SE,135,4.0,8.5,55,0.00,,,0.00,WUHU216HW,2013-01-29 18:58:00,
2013-01-29 14:03:00,64.2,47.5,26.59,SE,135,3.5,8.5,55,0.00,,,0.00,WUHU216HW,2013-01-29 19:03:00,
2013-01-29 14:08:00,64.4,47.7,26.58,SSE,158,0.0,8.0,55,0.00,,,0.00,WUHU216HW,2013-01-29 19:08:00,
2013-01-29 14:14:00,64.2,47.5,26.58,SSE,158,1.1,8.0,55,0.00,,,0.00,WUHU216HW,2013-01-29 19:14:00,
2013-01-29 14:19:00,64.2,47.1,26.58,SE,135,9.6,9.6,54,0.00,,,0.00,WUHU216HW,2013-01-29 19:19:00,
2013-01-29 14:24:00,64.2,47.1,26.58,SE,135,11.1,11.1,54,0.00,,,0.00,WUHU216HW,2013-01-29 19:24:00,
2013-01-29 14:29:00,64.2,47.1,26.58,SE,135,7.8,11.1,54,0.00,,,0.00,WUHU216HW,2013-01-29 19:29:00,
2013-01-29 14:34:00,64.2,47.1,26.58,SE,135,6.9,11.1,54,0.00,,,0.00,WUHU216HW,2013-01-29 19:34:00,
2013-01-29 14:39:00,64.0,46.9,26.58,SSE,158,7.6,7.8,54,0.00,,,0.00,WUHU216HW,2013-01-29 19:39:00,
2013-01-29 14:44:00,64.0,47.4,26.57,SE,135,8.5,8.5,55,0.00,,,0.00,WUHU216HW,2013-01-29 19:44:00,
2013-01-29 14:49:00,63.6,47.2,26.57,SSE,158,8.2,12.9,55,0.00,,,0.00,WUHU216HW,2013-01-29 19:49:00,
2013-01-29 14:54:00,63.6,47.1,26.57,SE,135,13.6,13.6,55,0.00,,,0.00,WUHU216HW,2013-01-29 19:54:00,
2013-01-29 14:59:00,63.5,46.9,26.57,SE,135,10.9,13.6,55,0.00,,,0.00,WUHU216HW,2013-01-29 19:59:00,
2013-01-29 15:04:00,63.3,46.2,26.57,SE,135,10.7,13.6,54,0.00,,,0.00,WUHU216HW,2013-01-29 20:04:00,
2013-01-29 15:09:00,63.3,46.2,26.57,SE,135,10.9,10.9,54,0.00,,,0.00,WUHU216HW,2013-01-29 20:09:00,
2013-01-29 15:14:00,63.3,46.2,26.57,SE,135,11.1,11.4,54,0.00,,,0.00,WUHU216HW,2013-01-29 20:14:00,
2013-01-29 15:19:00,62.9,45.9,26.57,SE,135,12.5,12.5,54,0.00,,,0.00,WUHU216HW,2013-01-29 20:19:00,
2013-01-29 15:24:00,62.4,45.4,26.57,SE,135,9.8,12.5,54,0.00,,,0.00,WUHU216HW,2013-01-29 20:24:00,
2013-01-29 15:29:00,62.2,45.8,26.57,SSE,158,11.6,12.5,55,0.00,,,0.00,WUHU216HW,2013-01-29 20:29:00,
2013-01-29 15:34:00,62.0,45.6,26.57,SE,135,6.0,11.6,55,0.00,,,0.00,WUHU216HW,2013-01-29 20:34:00,
2013-01-29 15:39:00,61.7,45.3,26.57,SSW,203,0.8,11.8,55,0.00,,,0.00,WUHU216HW,2013-01-29 20:39:00,
2013-01-29 15:44:00,61.5,45.1,26.57,SSE,158,8.7,11.8,55,0.00,,,0.00,WUHU216HW,2013-01-29 20:44:00,
2013-01-29 15:49:00,61.5,45.1,26.57,SE,135,4.0,8.7,55,0.00,,,0.00,WUHU216HW,2013-01-29 20:49:00,
2013-01-29 15:54:00,61.3,44.9,26.57,SSE,158,4.0,9.1,55,0.00,,,0.00,WUHU216HW,2013-01-29 20:54:00,
2013-01-29 15:59:00,61.1,44.8,26.57,SSE,158,12.9,12.9,55,0.00,,,0.00,WUHU216HW,2013-01-29 20:59:00,
2013-01-29 16:04:00,60.9,44.6,26.57,SSE,158,6.7,12.9,55,0.00,,,0.00,WUHU216HW,2013-01-29 21:04:00,
2013-01-29 16:09:00,60.6,44.3,26.57,SE,135,14.5,14.5,55,0.00,,,0.00,WUHU216HW,2013-01-29 21:09:00,
2013-01-29 16:14:00,60.4,44.6,26.57,SE,135,6.4,14.5,56,0.00,,,0.00,WUHU216HW,2013-01-29 21:14:00,
2013-01-29 16:20:00,60.0,44.2,26.56,West,270,1.5,12.9,56,0.00,,,0.00,WUHU216HW,2013-01-29 21:20:00,
2013-01-29 16:25:00,59.9,44.6,26.56,SSE,158,7.8,12.9,57,0.00,,,0.00,WUHU216HW,2013-01-29 21:25:00,
2013-01-29 16:30:00,59.7,44.4,26.57,SE,135,4.9,7.8,57,0.00,,,0.00,WUHU216HW,2013-01-29 21:30:00,
2013-01-29 16:35:00,59.5,44.7,26.57,SE,135,5.3,7.6,58,0.00,,,0.00,WUHU216HW,2013-01-29 21:35:00,
2013-01-29 16:40:00,59.3,44.5,26.56,SSE,158,8.5,8.5,58,0.00,,,0.00,WUHU216HW,2013-01-29 21:40:00,
2013-01-29 16:45:00,59.1,44.3,26.56,SSE,158,6.0,8.5,58,0.00,,,0.00,WUHU216HW,2013-01-29 21:45:00,
2013-01-29 16:50:00,58.8,44.0,26.56,SSE,158,10.5,10.5,58,0.00,,,0.00,WUHU216HW,2013-01-29 21:50:00,
2013-01-29 16:55:00,58.8,44.5,26.56,SSE,158,10.5,10.5,59,0.00,,,0.00,WUHU216HW,2013-01-29 21:55:00,
2013-01-29 17:00:00,58.8,44.5,26.56,SSE,158,10.5,10.5,59,0.00,,,0.00,WUHU216HW,2013-01-29 22:00:00,
2013-01-29 17:05:00,58.8,44.9,26.56,South,180,0.0,10.5,60,0.00,,,0.00,WUHU216HW,2013-01-29 22:05:00,
2013-01-29 17:10:00,58.4,44.6,26.56,SSE,158,7.8,10.5,60,0.00,,,0.00,WUHU216HW,2013-01-29 22:10:00,
2013-01-29 17:15:00,58.2,44.8,26.56,SSE,158,7.1,8.5,61,0.00,,,0.00,WUHU216HW,2013-01-29 22:15:00,
2013-01-29 17:20:00,58.1,44.7,26.56,SE,135,6.2,8.5,61,0.00,,,0.00,WUHU216HW,2013-01-29 22:20:00,
2013-01-29 17:25:00,57.9,44.9,26.56,SE,135,3.3,7.8,62,0.00,,,0.00,WUHU216HW,2013-01-29 22:25:00,
2013-01-29 17:30:00,57.7,44.7,26.56,SSE,158,6.9,7.8,62,0.00,,,0.00,WUHU216HW,2013-01-29 22:30:00,
2013-01-29 17:35:00,57.5,45.0,26.56,SSE,158,5.8,15.4,63,0.00,,,0.00,WUHU216HW,2013-01-29 22:35:00,
2013-01-29 17:40:00,57.3,44.8,26.56,SE,135,11.6,15.4,63,0.00,,,0.00,WUHU216HW,2013-01-29 22:40:00,
2013-01-29 17:45:00,57.3,45.2,26.56,SE,135,9.6,12.9,64,0.00,,,0.00,WUHU216HW,2013-01-29 22:45:00,
2013-01-29 17:50:00,57.0,45.3,26.56,South,180,3.3,12.9,64,0.00,,,0.00,WUHU216HW,2013-01-29 22:50:00,
2013-01-29 17:55:00,57.0,45.3,26.56,SE,135,5.3,9.6,65,0.00,,,0.00,WUHU216HW,2013-01-29 22:55:00,
2013-01-29 18:01:00,56.8,45.5,26.56,SE,135,8.0,8.0,66,0.00,,,0.00,WUHU216HW,2013-01-29 23:01:00,
2013-01-29 18:06:00,56.8,45.7,26.56,SSE,158,10.5,10.5,67,0.00,,,0.00,WUHU216HW,2013-01-29 23:06:00,
2013-01-29 18:11:00,56.4,45.6,26.55,SE,135,11.1,11.1,67,0.00,,,0.00,WUHU216HW,2013-01-29 23:11:00,
2013-01-29 18:16:00,56.3,45.4,26.56,SSE,158,7.3,11.1,67,0.00,,,0.00,WUHU216HW,2013-01-29 23:16:00,
2013-01-29 18:21:00,56.3,46.2,26.56,SSE,158,8.0,11.1,69,0.00,,,0.00,WUHU216HW,2013-01-29 23:21:00,
2013-01-29 18:26:00,56.1,46.0,26.56,SSE,158,7.1,10.0,69,0.00,,,0.00,WUHU216HW,2013-01-29 23:26:00,
2013-01-29 18:31:00,55.9,46.3,26.55,SE,135,7.8,10.0,70,0.00,,,0.00,WUHU216HW,2013-01-29 23:31:00,
2013-01-29 18:36:00,55.9,46.3,26.56,SSE,158,0.8,10.0,70,0.00,,,0.00,WUHU216HW,2013-01-29 23:36:00,
2013-01-29 18:41:00,55.9,46.6,26.55,SE,135,6.7,6.9,71,0.00,,,0.00,WUHU216HW,2013-01-29 23:41:00,
2013-01-29 18:46:00,55.9,47.0,26.55,SSE,158,3.5,8.2,72,0.00,,,0.00,WUHU216HW,2013-01-29 23:46:00,
2013-01-29 18:51:00,55.9,47.0,26.55,SE,135,8.5,8.5,72,0.00,,,0.00,WUHU216HW,2013-01-29 23:51:00,
2013-01-29 18:56:00,55.9,47.0,26.55,SE,135,8.0,8.5,72,0.00,,,0.00,WUHU216HW,2013-01-29 23:56:00,
2013-01-29 19:01:00,55.7,46.8,26.55,SSE,158,7.3,8.5,72,0.00,,,0.00,WUHU216HW,2013-01-30 00:01:00,
2013-01-29 19:06:00,55.5,46.7,26.56,SE,135,9.1,9.3,72,0.00,,,0.00,WUHU216HW,2013-01-30 00:06:00,
2013-01-29 19:11:00,55.5,47.0,26.56,SE,135,11.8,11.8,73,0.00,,,0.00,WUHU216HW,2013-01-30 00:11:00,
2013-01-29 19:16:00,55.4,47.2,26.56,SE,135,6.7,11.8,74,0.00,,,0.00,WUHU216HW,2013-01-30 00:16:00,
2013-01-29 19:21:00,55.2,47.3,26.55,SSE,158,6.9,11.8,75,0.00,,,0.00,WUHU216HW,2013-01-30 00:21:00,
2013-01-29 19:26:00,55.0,47.2,26.55,SSE,158,7.8,8.9,75,0.00,,,0.00,WUHU216HW,2013-01-30 00:26:00,
2013-01-29 19:31:00,54.8,47.0,26.55,SE,135,6.4,10.7,75,0.00,,,0.00,WUHU216HW,2013-01-30 00:31:00,
2013-01-29 19:36:00,54.6,47.5,26.55,SSE,158,4.2,10.7,77,0.00,,,0.00,WUHU216HW,2013-01-30 00:36:00,
2013-01-29 19:41:00,54.6,47.5,26.55,NE,45,6.7,6.7,77,0.00,,,0.00,WUHU216HW,2013-01-30 00:41:00,
2013-01-29 19:46:00,54.8,48.0,26.56,South,180,5.1,7.3,78,0.00,,,0.00,WUHU216HW,2013-01-30 00:46:00,
2013-01-29 19:52:00,54.6,47.9,26.56,South,180,5.3,7.3,78,0.00,,,0.00,WUHU216HW,2013-01-30 00:52:00,
2013-01-29 19:57:00,54.6,48.2,26.56,SE,135,6.7,7.8,79,0.00,,,0.00,WUHU216HW,2013-01-30 00:57:00,
2013-01-29 20:02:00,54.6,48.2,26.56,ESE,113,5.8,7.8,79,0.00,,,0.00,WUHU216HW,2013-01-30 01:02:00,
2013-01-29 20:07:00,54.8,48.7,26.55,SSE,158,0.6,7.3,80,0.00,,,0.00,WUHU216HW,2013-01-30 01:07:00,
2013-01-29 20:12:00,54.6,48.6,26.56,SE,135,5.1,5.8,80,0.00,,,0.00,WUHU216HW,2013-01-30 01:12:00,
2013-01-29 20:17:00,54.6,48.6,26.56,SSE,158,1.7,6.0,80,0.00,,,0.00,WUHU216HW,2013-01-30 01:17:00,
2013-01-29 20:22:00,54.6,48.6,26.55,South,180,3.8,6.0,80,0.00,,,0.00,WUHU216HW,2013-01-30 01:22:00,
2013-01-29 20:27:00,54.6,48.9,26.56,SSE,158,6.2,7.1,81,0.00,,,0.00,WUHU216HW,2013-01-30 01:27:00,
2013-01-29 20:32:00,54.6,48.9,26.56,SSE,158,4.6,7.1,81,0.00,,,0.00,WUHU216HW,2013-01-30 01:32:00,
2013-01-29 20:37:00,54.8,49.1,26.56,SSE,158,3.1,10.0,81,0.00,,,0.00,WUHU216HW,2013-01-30 01:37:00,
2013-01-29 20:42:00,54.8,49.1,26.56,SSE,158,6.7,10.0,81,0.00,,,0.00,WUHU216HW,2013-01-30 01:42:00,
2013-01-29 20:47:00,54.8,49.1,26.56,SSE,158,5.5,6.7,81,0.00,,,0.00,WUHU216HW,2013-01-30 01:47:00,
2013-01-29 20:52:00,55.0,49.2,26.57,South,180,3.3,5.5,81,0.00,,,0.00,WUHU216HW,2013-01-30 01:52:00,
2013-01-29 20:57:00,55.0,49.2,26.58,South,180,0.0,7.8,81,0.00,,,0.00,WUHU216HW,2013-01-30 01:57:00,
2013-01-29 21:02:00,55.0,49.5,26.57,SSE,158,6.2,7.8,82,0.00,,,0.00,WUHU216HW,2013-01-30 02:02:00,
2013-01-29 21:07:00,55.0,49.5,26.58,SE,135,0.6,7.1,82,0.00,,,0.00,WUHU216HW,2013-01-30 02:07:00,
2013-01-29 21:12:00,55.0,49.5,26.58,SE,135,1.7,6.2,82,0.00,,,0.00,WUHU216HW,2013-01-30 02:12:00,
2013-01-29 21:17:00,55.0,49.5,26.58,SE,135,1.5,4.4,82,0.00,,,0.00,WUHU216HW,2013-01-30 02:17:00,
2013-01-29 21:22:00,55.0,49.5,26.57,South,180,0.6,4.4,82,0.00,,,0.00,WUHU216HW,2013-01-30 02:22:00,
2013-01-29 21:27:00,55.0,49.5,26.57,ESE,113,0.0,1.5,82,0.00,,,0.00,WUHU216HW,2013-01-30 02:27:00,
2013-01-29 21:32:00,55.2,49.7,26.56,SE,135,6.9,6.9,82,0.00,,,0.00,WUHU216HW,2013-01-30 02:32:00,
2013-01-29 21:37:00,55.2,49.7,26.56,SE,135,0.0,6.9,82,0.00,,,0.00,WUHU216HW,2013-01-30 02:37:00,
2013-01-29 21:42:00,55.2,49.7,26.55,SE,135,6.4,8.0,82,0.00,,,0.00,WUHU216HW,2013-01-30 02:42:00,
2013-01-29 21:47:00,55.2,49.7,26.55,South,180,4.6,8.0,82,0.00,,,0.00,WUHU216HW,2013-01-30 02:47:00,
2013-01-29 21:53:00,55.2,49.7,26.55,South,180,5.3,8.5,82,0.00,,,0.00,WUHU216HW,2013-01-30 02:53:00,
2013-01-29 21:58:00,55.2,49.7,26.55,SSE,158,0.4,8.5,82,0.00,,,0.00,WUHU216HW,2013-01-30 02:58:00,
2013-01-29 22:03:00,55.2,50.0,26.55,South,180,0.0,11.1,83,0.00,,,0.00,WUHU216HW,2013-01-30 03:03:00,
2013-01-29 22:08:00,55.2,50.0,26.55,SSE,158,7.8,11.1,83,0.00,,,0.00,WUHU216HW,2013-01-30 03:08:00,
2013-01-29 22:13:00,55.2,50.0,26.55,SE,135,8.5,8.5,83,0.00,,,0.00,WUHU216HW,2013-01-30 03:13:00,
2013-01-29 22:18:00,55.2,50.0,26.55,SE,135,2.6,8.5,83,0.00,,,0.00,WUHU216HW,2013-01-30 03:18:00,
2013-01-29 22:23:00,55.2,50.0,26.55,South,180,4.9,8.5,83,0.00,,,0.00,WUHU216HW,2013-01-30 03:23:00,
2013-01-29 22:28:00,55.2,50.0,26.55,SSE,158,0.0,7.8,83,0.00,,,0.00,WUHU216HW,2013-01-30 03:28:00,
2013-01-29 22:33:00,55.2,50.0,26.54,ESE,113,6.0,7.8,83,0.00,,,0.00,WUHU216HW,2013-01-30 03:33:00,
2013-01-29 22:38:00,55.2,50.3,26.54,ENE,68,2.9,8.2,84,0.00,,,0.00,WUHU216HW,2013-01-30 03:38:00,
2013-01-29 22:43:00,55.0,50.2,26.55,SSE,158,5.5,8.2,84,0.00,,,0.00,WUHU216HW,2013-01-30 03:43:00,
2013-01-29 22:48:00,55.0,50.2,26.55,SSW,203,0.0,11.6,84,0.00,,,0.00,WUHU216HW,2013-01-30 03:48:00,
2013-01-29 22:53:00,55.0,50.2,26.55,SSE,158,7.3,11.6,84,0.00,,,0.00,WUHU216HW,2013-01-30 03:53:00,
2013-01-29 22:58:00,55.0,50.2,26.55,SSE,158,5.5,9.8,84,0.00,,,0.00,WUHU216HW,2013-01-30 03:58:00,
2013-01-29 23:03:00,54.6,49.8,26.54,SSE,158,7.3,10.2,84,0.00,,,0.00,WUHU216HW,2013-01-30 04:03:00,
2013-01-29 23:08:00,54.6,49.8,26.53,SE,135,4.4,10.2,84,0.00,,,0.00,WUHU216HW,2013-01-30 04:08:00,
2013-01-29 23:13:00,54.6,49.8,26.53,SE,135,4.0,7.8,84,0.00,,,0.00,WUHU216HW,2013-01-30 04:13:00,
2013-01-29 23:18:00,54.6,50.2,26.53,SE,135,7.8,11.6,85,0.00,,,0.00,WUHU216HW,2013-01-30 04:18:00,
2013-01-29 23:23:00,54.6,50.2,26.53,SSE,158,10.0,12.3,85,0.00,,,0.00,WUHU216HW,2013-01-30 04:23:00,
2013-01-29 23:29:00,54.6,50.2,26.53,SE,135,9.8,12.3,85,0.00,,,0.00,WUHU216HW,2013-01-30 04:29:00,
2013-01-29 23:34:00,54.6,50.5,26.52,SE,135,7.1,10.0,86,0.00,,,0.00,WUHU216HW,2013-01-30 04:34:00,
2013-01-29 23:39:00,54.6,50.5,26.52,SE,135,6.0,12.0,86,0.00,,,0.00,WUHU216HW,2013-01-30 04:39:00,
2013-01-29 23:44:00,54.6,50.5,26.51,SSE,158,2.9,12.0,86,0.00,,,0.00,WUHU216HW,2013-01-30 04:44:00,
2013-01-29 23:49:00,54.6,50.5,26.52,South,180,12.7,12.7,86,0.00,,,0.00,WUHU216HW,2013-01-30 04:49:00,
2013-01-29 23:54:00,54.6,50.5,26.52,SE,135,8.5,12.7,86,0.00,,,0.00,WUHU216HW,2013-01-30 04:54:00,
2013-01-29 23:59:00,54.6,50.5,26.51,ESE,113,7.1,12.7,86,0.00,,,0.00,WUHU216HW,2013-01-30 04:59:00,